Time;durP1;ratioP1;P1;durP2;ratioP2;P2;SDS_P1;SDS_P2;PMS_P1;PMS_P2;Temp;Humidity;BMP_temperature;BMP_pressure;BME280_temperature;BME280_humidity;BME280_pressure;Samples;Min_cycle;Max_cycle;Signal;HPM_P1;HPM_P2
2024/01/10 00:01:47;;;;;;;;;;;;;;;;;;5036494;28;828;-71
2024/01/10 00:04:13;;;;;;;;;;;;;;;;;;5018744;28;1288;-71
2024/01/10 00:06:38;;;;;;;;;;;;;;;;;;5036055;28;880;-71
2024/01/10 00:09:04;;;;;;;;;;;;;;;;;;5035697;28;904;-72
2024/01/10 00:11:29;;;;;;;;;;;;;;;;;;5035851;28;967;-71
2024/01/10 00:13:59;;;;;;;;;;;;;;;;;;5034476;28;932;-71
2024/01/10 00:16:25;;;;;;;;;;;;;;;;;;5035774;28;840;-71
2024/01/10 00:18:50;;;;;;;;;;;;;;;;;;5017296;28;1955;-71
2024/01/10 00:21:15;;;;;;;;;;;;;;;;;;5017862;28;1197;-71
2024/01/10 00:23:40;;;;;;;;;;;;;;;;;;5035542;28;816;-72
2024/01/10 00:26:05;;;;;;;;;;;;;;;;;;5017631;28;1311;-72
2024/01/10 00:28:31;;;;;;;;;;;;;;;;;;5017792;28;1177;-72
2024/01/10 00:30:56;;;;;;;;;;;;;;;;;;5017328;28;1303;-72
2024/01/10 00:33:21;;;;;;;;;;;;;;;;;;5035499;28;809;-72
2024/01/10 00:35:46;;;;;;;;;;;;;;;;;;5035306;28;824;-72
2024/01/10 00:38:11;;;;;;;;;;;;;;;;;;5017286;28;1898;-71
2024/01/10 00:40:37;;;;;;;;;;;;;;;;;;5034942;28;879;-72
2024/01/10 00:43:02;;;;;;;;;;;;;;;;;;5035098;28;1173;-72
2024/01/10 00:45:28;;;;;;;;;;;;;;;;;;5034985;28;894;-72
2024/01/10 00:47:53;;;;;;;;;;;;;;;;;;5016953;28;1274;-72
2024/01/10 00:50:18;;;;;;;;;;;;;;;;;;5031098;28;1208;-72
2024/01/10 00:52:44;;;;;;;;;;;;;;;;;;5031204;28;1201;-71
2024/01/10 00:55:09;;;;;;;;;;;;;;;;;;5009858;28;1408;-71
2024/01/10 00:57:34;;;;;;;;;;;;;;;;;;5033883;28;1914;-72
2024/01/10 00:59:59;;;;;;;;;;;;;;;;;;5049786;28;1255;-71
2024/01/10 01:02:25;;;;;;;;;;;;;;;;;;5050160;28;1248;-75
2024/01/10 01:04:50;;;;;;;;;;;;;;;;;;5035963;28;852;-75
2024/01/10 01:07:15;;;;;;;;;;;;;;;;;;5035258;28;797;-73
2024/01/10 01:09:40;;;;;;;;;;;;;;;;;;5034103;28;1254;-74
2024/01/10 01:12:06;;;;;;;;;;;;;;;;;;5035487;28;915;-75
2024/01/10 01:14:31;;;;;;;;;;;;;;;;;;5050716;28;1338;-74
2024/01/10 01:16:56;;;;;;;;;;;;;;;;;;5033625;28;1213;-74
2024/01/10 01:19:22;;;;;;;;;;;;;;;;;;5035021;28;1898;-75
2024/01/10 01:21:47;;;;;;;;;;;;;;;;;;5027437;28;1185;-75
2024/01/10 01:24:12;;;;;;;;;;;;;;;;;;5029131;28;1094;-75
2024/01/10 01:26:37;;;;;;;;;;;;;;;;;;5029683;28;1213;-75
2024/01/10 01:29:03;;;;;;;;;;;;;;;;;;5029703;28;1220;-75
2024/01/10 01:31:28;;;;;;;;;;;;;;;;;;5011655;28;1301;-74
2024/01/10 01:33:53;;;;;;;;;;;;;;;;;;5030763;28;1145;-75
2024/01/10 01:36:18;;;;;;;;;;;;;;;;;;5029247;28;1269;-76
2024/01/10 01:38:43;;;;;;;;;;;;;;;;;;5033689;28;1965;-75
2024/01/10 01:41:09;;;;;;;;;;;;;;;;;;5033648;28;1347;-76
2024/01/10 01:43:35;;;;;;;;;;;;;;;;;;5033155;28;1348;-76
2024/01/10 01:46:01;;;;;;;;;;;;;;;;;;5033812;28;1177;-75
2024/01/10 01:48:26;;;;;;;;;;;;;;;;;;5034393;28;845;-76
2024/01/10 01:50:53;;;;;;;;;;;;;;;;;;5033075;28;1272;-75
2024/01/10 01:53:19;;;;;;;;;;;;;;;;;;5034586;28;1148;-76
2024/01/10 01:55:44;;;;;;;;;;;;;;;;;;5038428;28;987;-76
2024/01/10 01:58:10;;;;;;;;;;;;;;;;;;5034859;28;1914;-75
2024/01/10 02:00:35;;;;;;;;;;;;;;;;;;5035292;28;872;-76
2024/01/10 02:03:01;;;;;;;;;;;;;;;;;;5035405;28;1173;-76
2024/01/10 02:05:26;;;;;;;;;;;;;;;;;;5037333;28;1176;-75
2024/01/10 02:07:52;;;;;;;;;;;;;;;;;;5037865;28;875;-75
2024/01/10 02:10:18;;;;;;;;;;;;;;;;;;5033241;28;1369;-75
2024/01/10 02:12:43;;;;;;;;;;;;;;;;;;5034422;28;896;-76
2024/01/10 02:15:09;;;;;;;;;;;;;;;;;;5015852;28;1184;-72
2024/01/10 02:17:34;;;;;;;;;;;;;;;;;;5031948;28;1977;-71
2024/01/10 02:20:11;;;;;;;;;;;;;;;;;;5033620;28;951;-71
2024/01/10 02:22:36;;;;;;;;;;;;;;;;;;5033227;28;805;-71
2024/01/10 02:25:02;;;;;;;;;;;;;;;;;;5015385;28;1247;-70
2024/01/10 02:27:28;;;;;;;;;;;;;;;;;;5032047;28;1226;-71
2024/01/10 02:29:54;;;;;;;;;;;;;;;;;;5033580;28;1397;-71
2024/01/10 02:32:19;;;;;;;;;;;;;;;;;;5033622;28;1010;-71
2024/01/10 02:34:45;;;;;;;;;;;;;;;;;;5032224;28;1140;-71
2024/01/10 02:37:10;;;;;;;;;;;;;;;;;;5032896;28;876;-72
2024/01/10 02:39:35;;;;;;;;;;;;;;;;;;5031710;28;1894;-72
2024/01/10 02:42:00;;;;;;;;;;;;;;;;;;5033557;28;832;-72
2024/01/10 02:44:26;;;;;;;;;;;;;;;;;;5031688;28;1140;-72
2024/01/10 02:46:51;;;;;;;;;;;;;;;;;;5033166;28;801;-72
2024/01/10 02:49:18;;;;;;;;;;;;;;;;;;5032964;28;824;-72
2024/01/10 02:51:43;;;;;;;;;;;;;;;;;;5031277;28;1305;-72
2024/01/10 02:54:08;;;;;;;;;;;;;;;;;;5033065;28;920;-72
2024/01/10 02:56:34;;;;;;;;;;;;;;;;;;5033019;28;953;-71
2024/01/10 02:58:59;;;;;;;;;;;;;;;;;;5033138;28;1906;-71
2024/01/10 03:01:24;;;;;;;;;;;;;;;;;;5032878;28;900;-72
2024/01/10 03:03:49;;;;;;;;;;;;;;;;;;5032140;28;1188;-72
2024/01/10 03:06:14;;;;;;;;;;;;;;;;;;5032991;28;907;-72
2024/01/10 03:08:40;;;;;;;;;;;;;;;;;;5031846;28;1490;-72
2024/01/10 03:11:05;;;;;;;;;;;;;;;;;;5031917;28;1428;-72
2024/01/10 03:13:30;;;;;;;;;;;;;;;;;;5031515;28;1246;-72
2024/01/10 03:15:55;;;;;;;;;;;;;;;;;;5032967;28;828;-72
2024/01/10 03:18:21;;;;;;;;;;;;;;;;;;5032836;28;1890;-71
2024/01/10 03:20:46;;;;;;;;;;;;;;;;;;5033144;28;860;-71
2024/01/10 03:23:11;;;;;;;;;;;;;;;;;;5033079;28;805;-71
2024/01/10 03:25:36;;;;;;;;;;;;;;;;;;5033060;28;1042;-71
2024/01/10 03:28:02;;;;;;;;;;;;;;;;;;5015083;28;1392;-72
2024/01/10 03:30:27;;;;;;;;;;;;;;;;;;5031498;28;1191;-71
2024/01/10 03:32:53;;;;;;;;;;;;;;;;;;5033069;28;983;-72
2024/01/10 03:35:18;;;;;;;;;;;;;;;;;;5033220;28;896;-75
2024/01/10 03:37:43;;;;;;;;;;;;;;;;;;5031690;28;1894;-75
2024/01/10 03:40:08;;;;;;;;;;;;;;;;;;5033303;28;888;-76
2024/01/10 03:42:34;;;;;;;;;;;;;;;;;;5032167;28;1387;-76
2024/01/10 03:44:59;;;;;;;;;;;;;;;;;;5033548;28;824;-76
2024/01/10 03:47:24;;;;;;;;;;;;;;;;;;5034451;28;876;-75
2024/01/10 03:49:49;;;;;;;;;;;;;;;;;;5035691;28;1192;-75
2024/01/10 03:52:15;;;;;;;;;;;;;;;;;;5037862;28;1302;-75
2024/01/10 03:54:40;;;;;;;;;;;;;;;;;;5039765;28;1327;-74
2024/01/10 03:57:06;;;;;;;;;;;;;;;;;;5040822;28;848;-75
2024/01/10 03:59:31;;;;;;;;;;;;;;;;;;5041383;28;1914;-74
2024/01/10 04:01:56;;;;;;;;;;;;;;;;;;5039370;28;1164;-75
2024/01/10 04:04:22;;;;;;;;;;;;;;;;;;5040222;28;895;-75
2024/01/10 04:06:47;;;;;;;;;;;;;;;;;;5042495;28;851;-76
2024/01/10 04:09:12;;;;;;;;;;;;;;;;;;5042085;28;951;-75
2024/01/10 04:11:38;;;;;;;;;;;;;;;;;;5041279;28;852;-74
2024/01/10 04:14:03;;;;;;;;;;;;;;;;;;5039653;28;1289;-74
2024/01/10 04:16:29;;;;;;;;;;;;;;;;;;5041247;28;837;-74
2024/01/10 04:18:54;;;;;;;;;;;;;;;;;;5041582;28;1982;-75
2024/01/10 04:21:19;;;;;;;;;;;;;;;;;;5039404;28;1173;-75
2024/01/10 04:23:45;;;;;;;;;;;;;;;;;;5040400;28;1081;-75
2024/01/10 04:26:10;;;;;;;;;;;;;;;;;;5039621;28;1306;-75
2024/01/10 04:28:35;;;;;;;;;;;;;;;;;;5039444;28;1275;-75
2024/01/10 04:31:00;;;;;;;;;;;;;;;;;;5039284;28;1417;-74
2024/01/10 04:33:25;;;;;;;;;;;;;;;;;;5042068;28;919;-75
2024/01/10 04:35:51;;;;;;;;;;;;;;;;;;5040409;28;1276;-75
2024/01/10 04:38:16;;;;;;;;;;;;;;;;;;5040381;28;1976;-75
2024/01/10 04:40:41;;;;;;;;;;;;;;;;;;5040016;28;1101;-75
2024/01/10 04:43:06;;;;;;;;;;;;;;;;;;5041056;28;1074;-75
2024/01/10 04:45:31;;;;;;;;;;;;;;;;;;5041449;28;1070;-75
2024/01/10 04:47:57;;;;;;;;;;;;;;;;;;5041363;28;971;-75
2024/01/10 04:50:22;;;;;;;;;;;;;;;;;;5041269;28;900;-75
2024/01/10 04:52:47;;;;;;;;;;;;;;;;;;5040573;28;895;-74
2024/01/10 04:55:12;;;;;;;;;;;;;;;;;;5039615;28;1201;-75
2024/01/10 04:57:38;;;;;;;;;;;;;;;;;;5041434;28;1981;-74
2024/01/10 05:00:04;;;;;;;;;;;;;;;;;;5039445;28;1304;-74
2024/01/10 05:02:29;;;;;;;;;;;;;;;;;;5043125;28;1307;-75
2024/01/10 05:04:54;;;;;;;;;;;;;;;;;;5023603;28;1187;-75
2024/01/10 05:07:21;;;;;;;;;;;;;;;;;;5042586;28;1214;-73
2024/01/10 05:09:46;;;;;;;;;;;;;;;;;;5044502;28;1102;-75
2024/01/10 05:12:11;;;;;;;;;;;;;;;;;;5042695;28;1116;-75
2024/01/10 05:14:36;;;;;;;;;;;;;;;;;;5041554;28;911;-75
2024/01/10 05:17:03;;;;;;;;;;;;;;;;;;5043346;28;1082;-75
2024/01/10 05:19:29;;;;;;;;;;;;;;;;;;5034744;28;1959;-74
2024/01/10 05:21:54;;;;;;;;;;;;;;;;;;5035273;28;813;-75
2024/01/10 05:24:20;;;;;;;;;;;;;;;;;;5035245;28;880;-75
2024/01/10 05:26:45;;;;;;;;;;;;;;;;;;5035001;28;896;-75
2024/01/10 05:29:10;;;;;;;;;;;;;;;;;;5034966;28;963;-75
2024/01/10 05:31:35;;;;;;;;;;;;;;;;;;5034876;28;1007;-74
2024/01/10 05:34:01;;;;;;;;;;;;;;;;;;5033610;28;1125;-75
2024/01/10 05:36:26;;;;;;;;;;;;;;;;;;5034546;28;892;-75
2024/01/10 05:38:52;;;;;;;;;;;;;;;;;;5034769;28;1908;-76
2024/01/10 05:41:17;;;;;;;;;;;;;;;;;;5033400;28;1241;-75
2024/01/10 05:43:43;;;;;;;;;;;;;;;;;;5034463;28;924;-75
2024/01/10 05:46:09;;;;;;;;;;;;;;;;;;5033109;28;1258;-76
2024/01/10 05:48:35;;;;;;;;;;;;;;;;;;5049925;28;1282;-75
2024/01/10 05:51:00;;;;;;;;;;;;;;;;;;5034392;28;919;-75
2024/01/10 05:53:26;;;;;;;;;;;;;;;;;;5033019;28;1236;-75
2024/01/10 05:55:51;;;;;;;;;;;;;;;;;;5034127;28;999;-75
2024/01/10 05:58:16;;;;;;;;;;;;;;;;;;5034325;28;1890;-75
2024/01/10 06:00:41;;;;;;;;;;;;;;;;;;5034372;28;777;-76
2024/01/10 06:03:07;;;;;;;;;;;;;;;;;;5034538;28;848;-76
2024/01/10 06:05:32;;;;;;;;;;;;;;;;;;5034769;28;872;-76
2024/01/10 06:07:58;;;;;;;;;;;;;;;;;;5048902;28;1204;-75
2024/01/10 06:10:23;;;;;;;;;;;;;;;;;;5032413;28;935;-76
2024/01/10 06:12:48;;;;;;;;;;;;;;;;;;5031040;28;1285;-76
2024/01/10 06:15:14;;;;;;;;;;;;;;;;;;5032080;28;813;-76
2024/01/10 06:17:39;;;;;;;;;;;;;;;;;;5030494;28;1968;-76
2024/01/10 06:20:06;;;;;;;;;;;;;;;;;;5031015;28;1291;-75
2024/01/10 06:22:31;;;;;;;;;;;;;;;;;;5032336;28;860;-76
2024/01/10 06:24:57;;;;;;;;;;;;;;;;;;5033184;28;880;-75
2024/01/10 06:27:22;;;;;;;;;;;;;;;;;;5034603;28;883;-75
2024/01/10 06:29:47;;;;;;;;;;;;;;;;;;5034021;28;836;-76
2024/01/10 06:32:14;;;;;;;;;;;;;;;;;;5033543;28;931;-75
2024/01/10 06:34:39;;;;;;;;;;;;;;;;;;5048745;28;1535;-75
2024/01/10 06:37:06;;;;;;;;;;;;;;;;;;5033701;28;1026;-75
2024/01/10 06:39:32;;;;;;;;;;;;;;;;;;5031966;28;1891;-75
2024/01/10 06:41:57;;;;;;;;;;;;;;;;;;5034119;28;904;-75
2024/01/10 06:44:23;;;;;;;;;;;;;;;;;;5032280;28;1191;-75
2024/01/10 06:46:48;;;;;;;;;;;;;;;;;;5032915;28;1183;-75
2024/01/10 06:49:13;;;;;;;;;;;;;;;;;;5032683;28;1420;-75
2024/01/10 06:51:39;;;;;;;;;;;;;;;;;;5033299;28;1039;-75
2024/01/10 06:54:05;;;;;;;;;;;;;;;;;;5032093;28;1231;-75
2024/01/10 06:56:33;;;;;;;;;;;;;;;;;;5033590;28;844;-75
2024/01/10 06:58:59;;;;;;;;;;;;;;;;;;5033344;28;1910;-75
2024/01/10 07:01:25;;;;;;;;;;;;;;;;;;5033232;28;864;-75
2024/01/10 07:03:51;;;;;;;;;;;;;;;;;;5032583;28;1204;-75
2024/01/10 07:06:16;;;;;;;;;;;;;;;;;;5032385;28;867;-72
2024/01/10 07:08:44;;;;;;;;;;;;;;;;;;5032790;28;979;-72
2024/01/10 07:11:11;;;;;;;;;;;;;;;;;;5031109;28;1166;-72
2024/01/10 07:13:36;;;;;;;;;;;;;;;;;;5047521;28;1235;-73
2024/01/10 07:16:02;;;;;;;;;;;;;;;;;;5034862;28;821;-75
2024/01/10 07:18:30;;;;;;;;;;;;;;;;;;5034275;28;1965;-75
2024/01/10 07:20:56;;;;;;;;;;;;;;;;;;5034340;28;947;-74
2024/01/10 07:23:22;;;;;;;;;;;;;;;;;;5036301;28;892;-75
2024/01/10 07:25:47;;;;;;;;;;;;;;;;;;5038481;28;832;-75
2024/01/10 07:28:13;;;;;;;;;;;;;;;;;;5036692;28;892;-75
2024/01/10 07:30:38;;;;;;;;;;;;;;;;;;5035824;28;849;-75
2024/01/10 07:33:03;;;;;;;;;;;;;;;;;;5035336;28;821;-75
2024/01/10 07:35:30;;;;;;;;;;;;;;;;;;5034304;28;1151;-75
2024/01/10 07:37:55;;;;;;;;;;;;;;;;;;5035208;28;1906;-75
2024/01/10 07:40:20;;;;;;;;;;;;;;;;;;5035525;28;778;-74
2024/01/10 07:42:45;;;;;;;;;;;;;;;;;;5049793;28;1324;-74
2024/01/10 07:45:11;;;;;;;;;;;;;;;;;;5034555;28;1278;-74
2024/01/10 07:47:39;;;;;;;;;;;;;;;;;;5036160;28;892;-74
2024/01/10 07:50:08;;;;;;;;;;;;;;;;;;5035287;28;1311;-74
2024/01/10 07:52:34;;;;;;;;;;;;;;;;;;5036077;28;876;-72
2024/01/10 07:54:59;;;;;;;;;;;;;;;;;;5036550;28;890;-71
2024/01/10 07:57:24;;;;;;;;;;;;;;;;;;5036143;28;903;-71
2024/01/10 07:59:50;;;;;;;;;;;;;;;;;;5034882;28;1982;-72
2024/01/10 08:02:16;;;;;;;;;;;;;;;;;;5035731;28;793;-72
2024/01/10 08:04:41;;;;;;;;;;;;;;;;;;5033677;28;1271;-72
2024/01/10 08:07:07;;;;;;;;;;;;;;;;;;5034917;28;852;-71
2024/01/10 08:09:32;;;;;;;;;;;;;;;;;;5034335;28;1196;-71
2024/01/10 08:11:58;;;;;;;;;;;;;;;;;;5035956;28;967;-72
2024/01/10 08:14:23;;;;;;;;;;;;;;;;;;5035057;28;1228;-72
2024/01/10 08:16:49;;;;;;;;;;;;;;;;;;5037689;28;817;-72
2024/01/10 08:19:14;;;;;;;;;;;;;;;;;;5037383;28;1883;-72
2024/01/10 08:21:40;;;;;;;;;;;;;;;;;;5037145;28;907;-71
2024/01/10 08:24:05;;;;;;;;;;;;;;;;;;5036632;28;912;-72
2024/01/10 08:26:31;;;;;;;;;;;;;;;;;;5037208;28;907;-72
2024/01/10 08:28:56;;;;;;;;;;;;;;;;;;5037546;28;817;-71
2024/01/10 08:31:23;;;;;;;;;;;;;;;;;;5035924;28;849;-72
2024/01/10 08:33:48;;;;;;;;;;;;;;;;;;5034760;28;785;-72
2024/01/10 08:36:16;;;;;;;;;;;;;;;;;;5036416;28;937;-72
2024/01/10 08:38:41;;;;;;;;;;;;;;;;;;5035763;28;1902;-71
2024/01/10 08:41:11;;;;;;;;;;;;;;;;;;5035719;28;828;-72
2024/01/10 08:43:36;;;;;;;;;;;;;;;;;;5034984;28;911;-71
2024/01/10 08:46:02;;;;;;;;;;;;;;;;;;5035377;28;979;-72
2024/01/10 08:48:27;;;;;;;;;;;;;;;;;;5035263;28;1112;-72
2024/01/10 08:50:55;;;;;;;;;;;;;;;;;;5033667;28;1163;-72
2024/01/10 08:53:21;;;;;;;;;;;;;;;;;;5035316;28;864;-72
2024/01/10 08:55:47;;;;;;;;;;;;;;;;;;5033661;28;1318;-71
2024/01/10 08:58:12;;;;;;;;;;;;;;;;;;5034645;28;1953;-71
2024/01/10 09:00:37;;;;;;;;;;;;;;;;;;5034755;28;951;-71
2024/01/10 09:03:03;;;;;;;;;;;;;;;;;;5035388;28;981;-72
2024/01/10 09:05:28;;;;;;;;;;;;;;;;;;5032664;28;1287;-71
2024/01/10 09:07:54;;;;;;;;;;;;;;;;;;5033342;28;1156;-71
2024/01/10 09:10:21;;;;;;;;;;;;;;;;;;5034817;28;844;-72
2024/01/10 09:12:46;;;;;;;;;;;;;;;;;;5035234;28;825;-72
2024/01/10 09:15:13;;;;;;;;;;;;;;;;;;5036077;28;989;-71
2024/01/10 09:17:38;;;;;;;;;;;;;;;;;;5035025;28;837;-72
2024/01/10 09:20:04;;;;;;;;;;;;;;;;;;5033375;28;1902;-71
2024/01/10 09:22:29;;;;;;;;;;;;;;;;;;5035003;28;978;-71
2024/01/10 09:24:54;;;;;;;;;;;;;;;;;;5034571;28;955;-71
2024/01/10 09:27:20;;;;;;;;;;;;;;;;;;5033098;28;1348;-70
2024/01/10 09:29:45;;;;;;;;;;;;;;;;;;5032936;28;1502;-71
2024/01/10 09:32:10;;;;;;;;;;;;;;;;;;5034552;28;928;-71
2024/01/10 09:34:36;;;;;;;;;;;;;;;;;;5061406;28;1082;-74
2024/01/10 09:37:02;;;;;;;;;;;;;;;;;;5054266;28;1126;-71
2024/01/10 09:39:27;;;;;;;;;;;;;;;;;;5069742;28;1874;-71
2024/01/10 09:41:52;;;;;;;;;;;;;;;;;;5053543;28;986;-71
2024/01/10 09:44:18;;;;;;;;;;;;;;;;;;5053769;28;991;-72
2024/01/10 09:46:45;;;;;;;;;;;;;;;;;;5068589;28;1282;-71
2024/01/10 09:49:11;;;;;;;;;;;;;;;;;;5053019;28;963;-72
2024/01/10 09:51:36;;;;;;;;;;;;;;;;;;5052870;28;1022;-72
2024/01/10 09:54:02;;;;;;;;;;;;;;;;;;5052675;28;1307;-71
2024/01/10 09:56:28;;;;;;;;;;;;;;;;;;5053016;28;1062;-70
2024/01/10 09:58:55;;;;;;;;;;;;;;;;;;5054216;28;1948;-71
2024/01/10 10:01:20;;;;;;;;;;;;;;;;;;5050248;28;1101;-72
2024/01/10 10:03:46;;;;;;;;;;;;;;;;;;5046241;28;1191;-72
2024/01/10 10:06:11;;;;;;;;;;;;;;;;;;5050317;28;1102;-71
2024/01/10 10:08:38;;;;;;;;;;;;;;;;;;5051379;28;1014;-71
2024/01/10 10:11:03;;;;;;;;;;;;;;;;;;5050027;28;1446;-72
2024/01/10 10:13:29;;;;;;;;;;;;;;;;;;5065704;28;1353;-71
2024/01/10 10:16:01;;;;;;;;;;;;;;;;;;5051093;28;1027;-71
2024/01/10 10:18:27;;;;;;;;;;;;;;;;;;5051356;28;1883;-73
2024/01/10 10:21:11;;;;;;;;;;;;;;;;;;5052218;28;1109;-72
2024/01/10 10:23:40;;;;;;;;;;;;;;;;;;5050605;28;1367;-71
2024/01/10 10:26:21;;;;;;;;;;;;;;;;;;5050510;28;1152;-72
2024/01/10 10:28:51;;;;;;;;;;;;;;;;;;5047550;28;955;-72
2024/01/10 10:31:17;;;;;;;;;;;;;;;;;;5043858;28;923;-72
2024/01/10 10:33:45;;;;;;;;;;;;;;;;;;5034584;28;876;-71
2024/01/10 10:36:13;;;;;;;;;;;;;;;;;;5036069;28;845;-72
2024/01/10 10:38:38;;;;;;;;;;;;;;;;;;5036451;28;1906;-71
2024/01/10 10:41:10;;;;;;;;;;;;;;;;;;5035997;28;896;-72
2024/01/10 10:43:36;;;;;;;;;;;;;;;;;;5034893;28;1378;-72
2024/01/10 10:46:03;;;;;;;;;;;;;;;;;;5050778;28;1177;-72
2024/01/10 10:48:31;;;;;;;;;;;;;;;;;;5035565;28;1202;-72
2024/01/10 10:51:09;;;;;;;;;;;;;;;;;;5035816;28;872;-72
2024/01/10 10:53:35;;;;;;;;;;;;;;;;;;5035723;28;833;-72
2024/01/10 10:56:02;;;;;;;;;;;;;;;;;;5034624;28;1048;-73
2024/01/10 10:58:27;;;;;;;;;;;;;;;;;;5036843;28;1898;-72
2024/01/10 11:00:53;;;;;;;;;;;;;;;;;;5038229;28;821;-73
2024/01/10 11:03:20;;;;;;;;;;;;;;;;;;5036747;28;1068;-73
2024/01/10 11:05:45;;;;;;;;;;;;;;;;;;5037450;28;1438;-72
2024/01/10 11:08:12;;;;;;;;;;;;;;;;;;5037376;28;936;-72
2024/01/10 11:10:38;;;;;;;;;;;;;;;;;;5037535;28;987;-72
2024/01/10 11:13:22;;;;;;;;;;;;;;;;;;5037133;28;939;-72
2024/01/10 11:15:54;;;;;;;;;;;;;;;;;;5036142;28;1148;-73
2024/01/10 11:18:30;;;;;;;;;;;;;;;;;;5036367;28;1965;-72
2024/01/10 11:21:10;;;;;;;;;;;;;;;;;;5035768;28;1337;-72
2024/01/10 11:23:36;;;;;;;;;;;;;;;;;;5037076;28;816;-72
2024/01/10 11:26:02;;;;;;;;;;;;;;;;;;5037038;28;1256;-73
2024/01/10 11:28:30;;;;;;;;;;;;;;;;;;5038407;28;884;-73
2024/01/10 11:30:56;;;;;;;;;;;;;;;;;;5037646;28;1038;-72
2024/01/10 11:33:22;;;;;;;;;;;;;;;;;;5037820;28;879;-73
2024/01/10 11:36:08;;;;;;;;;;;;;;;;;;5037569;28;812;-72
2024/01/10 11:38:33;;;;;;;;;;;;;;;;;;5037565;28;1979;-71
2024/01/10 11:40:58;;;;;;;;;;;;;;;;;;5052091;28;1242;-72
2024/01/10 11:43:23;;;;;;;;;;;;;;;;;;5037049;28;821;-72
2024/01/10 11:45:55;;;;;;;;;;;;;;;;;;5052441;28;1240;-71
2024/01/10 11:48:27;;;;;;;;;;;;;;;;;;5035433;28;1141;-71
2024/01/10 11:50:52;;;;;;;;;;;;;;;;;;5036228;28;758;-71
2024/01/10 11:53:39;;;;;;;;;;;;;;;;;;5036477;28;967;-71
2024/01/10 11:56:18;;;;;;;;;;;;;;;;;;5018259;28;1499;-72
2024/01/10 11:59:00;;;;;;;;;;;;;;;;;;5036065;28;1930;-71
2024/01/10 12:01:27;;;;;;;;;;;;;;;;;;5034579;28;1157;-71
2024/01/10 12:03:53;;;;;;;;;;;;;;;;;;5034471;28;1168;-71
2024/01/10 12:06:19;;;;;;;;;;;;;;;;;;5036667;28;917;-71
2024/01/10 12:08:45;;;;;;;;;;;;;;;;;;5035531;28;912;-73
2024/01/10 12:11:10;;;;;;;;;;;;;;;;;;5035139;28;1153;-74
2024/01/10 12:13:36;;;;;;;;;;;;;;;;;;5035519;28;1246;-73
2024/01/10 12:16:01;;;;;;;;;;;;;;;;;;5035976;28;817;-74
2024/01/10 12:18:26;;;;;;;;;;;;;;;;;;5036886;28;1914;-74
2024/01/10 12:20:52;;;;;;;;;;;;;;;;;;5040469;28;1003;-74
2024/01/10 12:23:17;;;;;;;;;;;;;;;;;;5041376;28;872;-74
2024/01/10 12:25:42;;;;;;;;;;;;;;;;;;5054181;28;1221;-73
2024/01/10 12:28:08;;;;;;;;;;;;;;;;;;5037067;28;1259;-74
2024/01/10 12:30:33;;;;;;;;;;;;;;;;;;5039320;28;845;-75
2024/01/10 12:32:59;;;;;;;;;;;;;;;;;;5054211;28;1180;-74
2024/01/10 12:35:25;;;;;;;;;;;;;;;;;;5053585;28;1285;-74
2024/01/10 12:37:55;;;;;;;;;;;;;;;;;;5038453;28;900;-75
2024/01/10 12:40:21;;;;;;;;;;;;;;;;;;5054455;28;1271;-75
2024/01/10 12:42:47;;;;;;;;;;;;;;;;;;5039332;28;857;-74
2024/01/10 12:45:24;;;;;;;;;;;;;;;;;;5036740;28;1250;-74
2024/01/10 12:47:49;;;;;;;;;;;;;;;;;;5039032;28;856;-74
2024/01/10 12:50:15;;;;;;;;;;;;;;;;;;5038554;28;1082;-73
2024/01/10 12:52:42;;;;;;;;;;;;;;;;;;5037705;28;1270;-75
2024/01/10 12:55:07;;;;;;;;;;;;;;;;;;5038763;28;1000;-74
2024/01/10 12:57:33;;;;;;;;;;;;;;;;;;5053584;28;1200;-74
2024/01/10 12:59:58;;;;;;;;;;;;;;;;;;5038249;28;1902;-75
2024/01/10 13:02:23;;;;;;;;;;;;;;;;;;5037601;28;1292;-74
2024/01/10 13:04:48;;;;;;;;;;;;;;;;;;5038534;28;1229;-74
2024/01/10 13:07:14;;;;;;;;;;;;;;;;;;5037390;28;1156;-74
2024/01/10 13:09:39;;;;;;;;;;;;;;;;;;5036121;28;916;-75
2024/01/10 13:12:05;;;;;;;;;;;;;;;;;;5034938;28;1203;-74
2024/01/10 13:14:31;;;;;;;;;;;;;;;;;;5034201;28;1302;-73
2024/01/10 13:16:56;;;;;;;;;;;;;;;;;;5035238;28;852;-73
2024/01/10 13:19:21;;;;;;;;;;;;;;;;;;5033901;28;1914;-73
2024/01/10 13:21:47;;;;;;;;;;;;;;;;;;5034468;28;959;-74
2024/01/10 13:24:12;;;;;;;;;;;;;;;;;;5034301;28;912;-74
2024/01/10 13:26:37;;;;;;;;;;;;;;;;;;5035987;28;883;-75
2024/01/10 13:29:03;;;;;;;;;;;;;;;;;;5050423;28;1319;-74
2024/01/10 13:31:28;;;;;;;;;;;;;;;;;;5035071;28;855;-74
2024/01/10 13:33:54;;;;;;;;;;;;;;;;;;5034617;28;891;-74
2024/01/10 13:36:19;;;;;;;;;;;;;;;;;;5033992;28;1333;-74
2024/01/10 13:38:44;;;;;;;;;;;;;;;;;;5050007;28;1890;-74
2024/01/10 13:41:10;;;;;;;;;;;;;;;;;;5034590;28;1003;-74
2024/01/10 13:43:35;;;;;;;;;;;;;;;;;;5034678;28;928;-73
2024/01/10 13:46:03;;;;;;;;;;;;;;;;;;5035119;28;978;-74
2024/01/10 13:48:29;;;;;;;;;;;;;;;;;;5034572;28;903;-74
2024/01/10 13:50:54;;;;;;;;;;;;;;;;;;5034507;28;884;-73
2024/01/10 13:53:19;;;;;;;;;;;;;;;;;;5050095;28;1162;-74
2024/01/10 13:55:46;;;;;;;;;;;;;;;;;;5035108;28;915;-74
2024/01/10 13:58:11;;;;;;;;;;;;;;;;;;5034762;28;1971;-74
2024/01/10 14:00:37;;;;;;;;;;;;;;;;;;5032593;28;1317;-74
2024/01/10 14:03:03;;;;;;;;;;;;;;;;;;5049639;28;1157;-74
2024/01/10 14:05:28;;;;;;;;;;;;;;;;;;5034581;28;919;-74
2024/01/10 14:07:54;;;;;;;;;;;;;;;;;;5034674;28;823;-73
2024/01/10 14:10:19;;;;;;;;;;;;;;;;;;5048744;28;1259;-74
2024/01/10 14:12:45;;;;;;;;;;;;;;;;;;5033268;28;808;-74
2024/01/10 14:15:10;;;;;;;;;;;;;;;;;;5033689;28;920;-74
2024/01/10 14:17:36;;;;;;;;;;;;;;;;;;5033853;28;825;-74
2024/01/10 14:20:01;;;;;;;;;;;;;;;;;;5031908;28;1906;-74
2024/01/10 14:22:26;;;;;;;;;;;;;;;;;;5032529;28;1370;-74
2024/01/10 14:24:54;;;;;;;;;;;;;;;;;;5032376;28;1277;-74
2024/01/10 14:27:19;;;;;;;;;;;;;;;;;;5034199;28;923;-73
2024/01/10 14:29:44;;;;;;;;;;;;;;;;;;5032500;28;1231;-74
2024/01/10 14:32:11;;;;;;;;;;;;;;;;;;5048973;28;1422;-73
2024/01/10 14:34:36;;;;;;;;;;;;;;;;;;5032301;28;1297;-74
2024/01/10 14:37:02;;;;;;;;;;;;;;;;;;5033960;28;921;-74
2024/01/10 14:39:27;;;;;;;;;;;;;;;;;;5033492;28;1957;-74
2024/01/10 14:41:52;;;;;;;;;;;;;;;;;;5032747;28;1307;-74
2024/01/10 14:44:18;;;;;;;;;;;;;;;;;;5033459;28;821;-73
2024/01/10 14:46:43;;;;;;;;;;;;;;;;;;5033464;28;914;-74
2024/01/10 14:49:08;;;;;;;;;;;;;;;;;;5033285;28;995;-74
2024/01/10 14:51:34;;;;;;;;;;;;;;;;;;5032274;28;1281;-74
2024/01/10 14:53:59;;;;;;;;;;;;;;;;;;5033504;28;1239;-73
2024/01/10 14:56:24;;;;;;;;;;;;;;;;;;5032220;28;1149;-73
2024/01/10 14:58:50;;;;;;;;;;;;;;;;;;5033545;28;1971;-75
2024/01/10 15:01:16;;;;;;;;;;;;;;;;;;5032357;28;1207;-75
2024/01/10 15:03:42;;;;;;;;;;;;;;;;;;5033472;28;979;-75
2024/01/10 15:06:07;;;;;;;;;;;;;;;;;;5031836;28;1239;-75
2024/01/10 15:08:36;;;;;;;;;;;;;;;;;;5032194;28;1164;-74
2024/01/10 15:11:01;;;;;;;;;;;;;;;;;;5032783;28;916;-74
2024/01/10 15:13:26;;;;;;;;;;;;;;;;;;5031962;28;1267;-75
2024/01/10 15:15:52;;;;;;;;;;;;;;;;;;5033521;28;873;-75
2024/01/10 15:18:19;;;;;;;;;;;;;;;;;;5033113;28;1964;-75
2024/01/10 15:20:44;;;;;;;;;;;;;;;;;;5031452;28;1173;-75
2024/01/10 15:23:10;;;;;;;;;;;;;;;;;;5031436;28;1163;-75
2024/01/10 15:25:35;;;;;;;;;;;;;;;;;;5033117;28;729;-75
2024/01/10 15:28:01;;;;;;;;;;;;;;;;;;5033076;28;940;-75
2024/01/10 15:30:26;;;;;;;;;;;;;;;;;;5048410;28;1250;-75
2024/01/10 15:32:51;;;;;;;;;;;;;;;;;;5033315;28;939;-75
2024/01/10 15:35:17;;;;;;;;;;;;;;;;;;5033652;28;975;-74
2024/01/10 15:37:43;;;;;;;;;;;;;;;;;;5048715;28;1188;-74
2024/01/10 15:40:11;;;;;;;;;;;;;;;;;;5031684;28;1983;-74
2024/01/10 15:42:36;;;;;;;;;;;;;;;;;;5032030;28;1144;-75
2024/01/10 15:45:01;;;;;;;;;;;;;;;;;;5035145;28;1282;-74
2024/01/10 15:47:27;;;;;;;;;;;;;;;;;;5035366;28;1194;-74
2024/01/10 15:49:53;;;;;;;;;;;;;;;;;;5035661;28;1313;-74
2024/01/10 15:52:25;;;;;;;;;;;;;;;;;;5036823;28;1054;-74
2024/01/10 15:54:53;;;;;;;;;;;;;;;;;;5036525;28;1037;-74
2024/01/10 15:57:18;;;;;;;;;;;;;;;;;;5036617;28;781;-74
2024/01/10 15:59:44;;;;;;;;;;;;;;;;;;5036202;28;1906;-74
2024/01/10 16:02:09;;;;;;;;;;;;;;;;;;5051637;28;1452;-74
2024/01/10 16:04:34;;;;;;;;;;;;;;;;;;5036379;28;813;-74
2024/01/10 16:06:59;;;;;;;;;;;;;;;;;;5035077;28;1160;-75
2024/01/10 16:09:25;;;;;;;;;;;;;;;;;;5035797;28;1240;-74
2024/01/10 16:11:50;;;;;;;;;;;;;;;;;;5031049;28;1167;-75
2024/01/10 16:14:15;;;;;;;;;;;;;;;;;;5028750;28;1173;-74
2024/01/10 16:16:40;;;;;;;;;;;;;;;;;;5012540;28;1146;-76
2024/01/10 16:19:06;;;;;;;;;;;;;;;;;;5031035;28;1906;-77
2024/01/10 16:21:31;;;;;;;;;;;;;;;;;;5028685;28;1151;-77
2024/01/10 16:23:56;;;;;;;;;;;;;;;;;;5036164;28;892;-77
2024/01/10 16:26:21;;;;;;;;;;;;;;;;;;5036394;28;914;-74
2024/01/10 16:28:47;;;;;;;;;;;;;;;;;;5035870;28;955;-77
2024/01/10 16:31:12;;;;;;;;;;;;;;;;;;5035938;28;821;-76
2024/01/10 16:33:38;;;;;;;;;;;;;;;;;;5035921;28;888;-77
2024/01/10 16:36:03;;;;;;;;;;;;;;;;;;5017921;28;1352;-77
2024/01/10 16:38:28;;;;;;;;;;;;;;;;;;5035356;28;1978;-77
2024/01/10 16:40:53;;;;;;;;;;;;;;;;;;5035539;28;1035;-77
2024/01/10 16:43:19;;;;;;;;;;;;;;;;;;5017968;28;1172;-77
2024/01/10 16:45:44;;;;;;;;;;;;;;;;;;5017917;28;1328;-76
2024/01/10 16:48:09;;;;;;;;;;;;;;;;;;5017483;28;1238;-77
2024/01/10 16:50:35;;;;;;;;;;;;;;;;;;5017844;28;1295;-76
2024/01/10 16:53:01;;;;;;;;;;;;;;;;;;5035682;28;864;-76
2024/01/10 16:55:26;;;;;;;;;;;;;;;;;;5034076;28;1013;-77
2024/01/10 16:57:53;;;;;;;;;;;;;;;;;;5035778;28;1026;-76
2024/01/10 17:00:19;;;;;;;;;;;;;;;;;;5017211;28;1977;-76
2024/01/10 17:02:44;;;;;;;;;;;;;;;;;;5035575;28;1003;-76